sensor_id;sensor_type;location;lat;lon;timestamp;temperature;humidity
42905;DHT22;28550;51.228;4.528;2022-07-29T04:03:42;15.80;99.90
42905;DHT22;28550;51.228;4.528;2022-07-29T04:06:07;15.90;99.90
42905;DHT22;28550;51.228;4.528;2022-07-29T04:08:33;15.80;99.90
42905;DHT22;28550;51.228;4.528;2022-07-29T04:10:59;15.70;99.90
42905;DHT22;28550;51.228;4.528;2022-07-29T04:13:25;15.70;99.90
42905;DHT22;28550;51.228;4.528;2022-07-29T04:15:50;15.60;99.90
42905;DHT22;28550;51.228;4.528;2022-07-29T04:18:16;15.70;99.90
42905;DHT22;28550;51.228;4.528;2022-07-29T04:20:47;15.70;99.90
42905;DHT22;28550;51.228;4.528;2022-07-29T04:23:12;15.80;99.90
42905;DHT22;28550;51.228;4.528;2022-07-29T04:25:38;15.70;99.90
42905;DHT22;28550;51.228;4.528;2022-07-29T04:28:04;15.70;99.90
42905;DHT22;28550;51.228;4.528;2022-07-29T04:30:30;15.70;99.90
42905;DHT22;28550;51.228;4.528;2022-07-29T04:32:56;15.70;99.90
42905;DHT22;28550;51.228;4.528;2022-07-29T04:38:17;15.80;99.90
42905;DHT22;28550;51.228;4.528;2022-07-29T04:43:32;15.70;99.90
42905;DHT22;28550;51.228;4.528;2022-07-29T04:45:58;15.70;99.90
42905;DHT22;28550;51.228;4.528;2022-07-29T04:48:23;15.60;99.90
42905;DHT22;28550;51.228;4.528;2022-07-29T04:50:52;15.60;99.90
42905;DHT22;28550;51.228;4.528;2022-07-29T04:53:17;15.60;99.90
42905;DHT22;28550;51.228;4.528;2022-07-29T04:55:43;15.80;99.90
42905;DHT22;28550;51.228;4.528;2022-07-29T04:58:11;15.80;99.90
42905;DHT22;28550;51.228;4.528;2022-07-29T05:00:36;16.00;99.90
42905;DHT22;28550;51.228;4.528;2022-07-29T05:03:05;16.20;99.90
42905;DHT22;28550;51.228;4.528;2022-07-29T05:05:30;16.30;99.90
42905;DHT22;28550;51.228;4.528;2022-07-29T05:08:00;16.40;99.90
42905;DHT22;28550;51.228;4.528;2022-07-29T05:10:25;16.60;99.90
42905;DHT22;28550;51.228;4.528;2022-07-29T05:12:51;16.70;99.90
42905;DHT22;28550;51.228;4.528;2022-07-29T05:15:16;16.80;99.90
42905;DHT22;28550;51.228;4.528;2022-07-29T05:20:27;17.00;99.90
42905;DHT22;28550;51.228;4.528;2022-07-29T05:22:54;17.00;99.90
42905;DHT22;28550;51.228;4.528;2022-07-29T05:25:20;17.00;99.90
42905;DHT22;28550;51.228;4.528;2022-07-29T05:27:47;17.00;99.90
42905;DHT22;28550;51.228;4.528;2022-07-29T05:30:13;17.00;99.90
42905;DHT22;28550;51.228;4.528;2022-07-29T05:32:38;16.90;99.90
42905;DHT22;28550;51.228;4.528;2022-07-29T05:35:12;16.80;99.90
42905;DHT22;28550;51.228;4.528;2022-07-29T05:37:37;16.60;99.90
42905;DHT22;28550;51.228;4.528;2022-07-29T05:40:03;16.50;99.90
42905;DHT22;28550;51.228;4.528;2022-07-29T05:42:29;16.60;99.90
42905;DHT22;28550;51.228;4.528;2022-07-29T05:44:58;16.70;99.90
42905;DHT22;28550;51.228;4.528;2022-07-29T05:47:23;16.90;99.90
42905;DHT22;28550;51.228;4.528;2022-07-29T05:50:05;16.80;99.90
42905;DHT22;28550;51.228;4.528;2022-07-29T05:52:30;17.00;99.90
42905;DHT22;28550;51.228;4.528;2022-07-29T05:54:56;17.10;99.90
42905;DHT22;28550;51.228;4.528;2022-07-29T05:57:22;17.30;99.90
42905;DHT22;28550;51.228;4.528;2022-07-29T05:59:48;17.50;99.90
42905;DHT22;28550;51.228;4.528;2022-07-29T06:02:14;17.70;99.90
42905;DHT22;28550;51.228;4.528;2022-07-29T06:04:39;18.00;99.90
42905;DHT22;28550;51.228;4.528;2022-07-29T06:07:05;18.20;99.90
42905;DHT22;28550;51.228;4.528;2022-07-29T06:12:20;18.50;99.90
42905;DHT22;28550;51.228;4.528;2022-07-29T06:17:36;19.10;99.90
42905;DHT22;28550;51.228;4.528;2022-07-29T06:20:05;19.40;99.90
42905;DHT22;28550;51.228;4.528;2022-07-29T06:22:31;19.80;99.90
42905;DHT22;28550;51.228;4.528;2022-07-29T06:24:56;20.00;99.90
42905;DHT22;28550;51.228;4.528;2022-07-29T06:27:22;20.20;99.90
42905;DHT22;28550;51.228;4.528;2022-07-29T06:29:55;20.20;99.90
42905;DHT22;28550;51.228;4.528;2022-07-29T06:32:21;20.30;99.90
42905;DHT22;28550;51.228;4.528;2022-07-29T06:34:47;20.20;99.90
42905;DHT22;28550;51.228;4.528;2022-07-29T06:37:13;20.10;99.90
42905;DHT22;28550;51.228;4.528;2022-07-29T06:39:42;20.10;99.90
42905;DHT22;28550;51.228;4.528;2022-07-29T06:42:08;20.30;99.90
42905;DHT22;28550;51.228;4.528;2022-07-29T06:44:39;20.80;99.90
42905;DHT22;28550;51.228;4.528;2022-07-29T06:47:11;21.00;99.90
42905;DHT22;28550;51.228;4.528;2022-07-29T06:49:37;21.30;99.90
42905;DHT22;28550;51.228;4.528;2022-07-29T06:52:02;21.60;99.90
42905;DHT22;28550;51.228;4.528;2022-07-29T06:54:45;21.80;99.90
42905;DHT22;28550;51.228;4.528;2022-07-29T06:57:13;22.00;99.90
42905;DHT22;28550;51.228;4.528;2022-07-29T06:59:39;22.30;99.90
42905;DHT22;28550;51.228;4.528;2022-07-29T07:02:04;22.50;99.90
42905;DHT22;28550;51.228;4.528;2022-07-29T07:04:30;22.70;99.90
42905;DHT22;28550;51.228;4.528;2022-07-29T07:06:55;23.00;99.90
42905;DHT22;28550;51.228;4.528;2022-07-29T07:09:21;23.50;99.90
42905;DHT22;28550;51.228;4.528;2022-07-29T07:11:47;23.80;99.80
42905;DHT22;28550;51.228;4.528;2022-07-29T07:14:12;24.10;99.00
42905;DHT22;28550;51.228;4.528;2022-07-29T07:16:38;24.40;98.80
42905;DHT22;28550;51.228;4.528;2022-07-29T07:19:04;24.80;97.30
42905;DHT22;28550;51.228;4.528;2022-07-29T07:21:29;25.10;96.10
42905;DHT22;28550;51.228;4.528;2022-07-29T07:23:58;25.30;95.50
42905;DHT22;28550;51.228;4.528;2022-07-29T07:26:24;25.80;94.50
42905;DHT22;28550;51.228;4.528;2022-07-29T07:28:50;26.20;93.30
42905;DHT22;28550;51.228;4.528;2022-07-29T07:31:16;26.60;91.80
42905;DHT22;28550;51.228;4.528;2022-07-29T07:33:41;26.80;91.20
42905;DHT22;28550;51.228;4.528;2022-07-29T07:36:07;27.10;90.30
42905;DHT22;28550;51.228;4.528;2022-07-29T07:38:33;27.20;88.00
42905;DHT22;28550;51.228;4.528;2022-07-29T07:40:58;27.40;85.30
42905;DHT22;28550;51.228;4.528;2022-07-29T07:43:24;27.60;85.10
42905;DHT22;28550;51.228;4.528;2022-07-29T07:45:50;27.70;83.40
42905;DHT22;28550;51.228;4.528;2022-07-29T07:48:15;27.90;82.60
42905;DHT22;28550;51.228;4.528;2022-07-29T07:50:41;28.50;78.80
42905;DHT22;28550;51.228;4.528;2022-07-29T07:53:06;28.80;1.00
42905;DHT22;28550;51.228;4.528;2022-07-29T07:55:32;28.70;1.00
42905;DHT22;28550;51.228;4.528;2022-07-29T07:58:12;29.10;1.00
42905;DHT22;28550;51.228;4.528;2022-07-29T08:00:41;29.10;1.00
42905;DHT22;28550;51.228;4.528;2022-07-29T08:03:06;29.20;1.00
42905;DHT22;28550;51.228;4.528;2022-07-29T08:05:32;29.30;1.00
42905;DHT22;28550;51.228;4.528;2022-07-29T08:07:58;29.80;1.00
42905;DHT22;28550;51.228;4.528;2022-07-29T08:10:23;29.90;1.00
42905;DHT22;28550;51.228;4.528;2022-07-29T08:13:08;30.40;1.00
42905;DHT22;28550;51.228;4.528;2022-07-29T08:15:34;30.70;1.00
42905;DHT22;28550;51.228;4.528;2022-07-29T08:18:00;30.80;1.00
42905;DHT22;28550;51.228;4.528;2022-07-29T08:20:25;31.00;1.00
42905;DHT22;28550;51.228;4.528;2022-07-29T08:22:51;31.10;99.90
42905;DHT22;28550;51.228;4.528;2022-07-29T08:25:17;31.50;1.00
42905;DHT22;28550;51.228;4.528;2022-07-29T08:27:48;31.90;99.90
42905;DHT22;28550;51.228;4.528;2022-07-29T08:30:14;31.70;99.90
42905;DHT22;28550;51.228;4.528;2022-07-29T08:32:39;31.50;99.90
42905;DHT22;28550;51.228;4.528;2022-07-29T08:35:05;31.60;99.90
42905;DHT22;28550;51.228;4.528;2022-07-29T08:37:31;31.90;99.90
42905;DHT22;28550;51.228;4.528;2022-07-29T08:39:57;32.00;99.90
42905;DHT22;28550;51.228;4.528;2022-07-29T08:42:23;32.30;99.90
42905;DHT22;28550;51.228;4.528;2022-07-29T08:44:49;32.70;99.90
42905;DHT22;28550;51.228;4.528;2022-07-29T08:47:16;32.70;99.90
42905;DHT22;28550;51.228;4.528;2022-07-29T08:52:23;33.70;99.90
42905;DHT22;28550;51.228;4.528;2022-07-29T08:54:50;34.10;99.90
42905;DHT22;28550;51.228;4.528;2022-07-29T09:00:09;34.50;99.90
42905;DHT22;28550;51.228;4.528;2022-07-29T09:02:39;34.90;99.90
42905;DHT22;28550;51.228;4.528;2022-07-29T09:05:05;35.20;99.90
42905;DHT22;28550;51.228;4.528;2022-07-29T09:07:31;34.70;99.90
42905;DHT22;28550;51.228;4.528;2022-07-29T09:09:57;33.80;99.90
42905;DHT22;28550;51.228;4.528;2022-07-29T09:12:23;33.00;99.90
42905;DHT22;28550;51.228;4.528;2022-07-29T09:14:50;32.40;99.90
42905;DHT22;28550;51.228;4.528;2022-07-29T09:17:16;32.00;99.90
42905;DHT22;28550;51.228;4.528;2022-07-29T09:19:43;32.50;99.90
42905;DHT22;28550;51.228;4.528;2022-07-29T09:22:08;33.20;99.90
42905;DHT22;28550;51.228;4.528;2022-07-29T09:24:39;33.70;99.90
42905;DHT22;28550;51.228;4.528;2022-07-29T09:27:24;34.00;99.90
42905;DHT22;28550;51.228;4.528;2022-07-29T09:30:01;34.60;99.90
42905;DHT22;28550;51.228;4.528;2022-07-29T09:32:31;33.40;99.90
42905;DHT22;28550;51.228;4.528;2022-07-29T09:37:42;33.30;99.90
42905;DHT22;28550;51.228;4.528;2022-07-29T09:40:13;33.80;99.90
42905;DHT22;28550;51.228;4.528;2022-07-29T09:42:39;34.00;99.90
42905;DHT22;28550;51.228;4.528;2022-07-29T09:45:05;34.00;99.90
42905;DHT22;28550;51.228;4.528;2022-07-29T09:47:44;34.00;99.90
42905;DHT22;28550;51.228;4.528;2022-07-29T09:50:10;33.70;99.90
42905;DHT22;28550;51.228;4.528;2022-07-29T09:52:54;34.00;99.90
42905;DHT22;28550;51.228;4.528;2022-07-29T09:55:19;35.10;99.90
42905;DHT22;28550;51.228;4.528;2022-07-29T09:57:48;35.30;99.90
42905;DHT22;28550;51.228;4.528;2022-07-29T10:00:15;35.60;99.90
42905;DHT22;28550;51.228;4.528;2022-07-29T10:02:42;36.00;99.90
42905;DHT22;28550;51.228;4.528;2022-07-29T10:05:19;36.40;99.90
42905;DHT22;28550;51.228;4.528;2022-07-29T10:07:57;35.30;99.90
42905;DHT22;28550;51.228;4.528;2022-07-29T10:13:10;34.60;99.90
42905;DHT22;28550;51.228;4.528;2022-07-29T10:15:38;34.80;99.90
42905;DHT22;28550;51.228;4.528;2022-07-29T10:18:07;34.70;99.90
42905;DHT22;28550;51.228;4.528;2022-07-29T10:20:32;34.40;99.90
42905;DHT22;28550;51.228;4.528;2022-07-29T10:22:58;35.10;99.90
42905;DHT22;28550;51.228;4.528;2022-07-29T10:25:24;35.00;99.90
42905;DHT22;28550;51.228;4.528;2022-07-29T10:27:50;35.70;99.90
42905;DHT22;28550;51.228;4.528;2022-07-29T10:30:19;35.90;99.90
42905;DHT22;28550;51.228;4.528;2022-07-29T10:33:05;36.70;99.90
42905;DHT22;28550;51.228;4.528;2022-07-29T10:43:59;35.60;99.90
42905;DHT22;28550;51.228;4.528;2022-07-29T10:46:28;35.50;99.90
42905;DHT22;28550;51.228;4.528;2022-07-29T10:52:09;37.20;99.90
42905;DHT22;28550;51.228;4.528;2022-07-29T10:57:41;38.80;99.90
42905;DHT22;28550;51.228;4.528;2022-07-29T11:00:51;39.20;99.90
42905;DHT22;28550;51.228;4.528;2022-07-29T11:06:01;39.10;99.90
42905;DHT22;28550;51.228;4.528;2022-07-29T11:08:27;38.70;99.90
42905;DHT22;28550;51.228;4.528;2022-07-29T11:11:29;38.90;99.90
42905;DHT22;28550;51.228;4.528;2022-07-29T11:16:07;38.90;99.90
42905;DHT22;28550;51.228;4.528;2022-07-29T11:18:32;39.40;99.90
42905;DHT22;28550;51.228;4.528;2022-07-29T11:20:58;39.00;99.90
42905;DHT22;28550;51.228;4.528;2022-07-29T11:26:28;39.30;99.90
42905;DHT22;28550;51.228;4.528;2022-07-29T11:28:54;38.90;99.90
42905;DHT22;28550;51.228;4.528;2022-07-29T11:31:41;38.90;99.90
42905;DHT22;28550;51.228;4.528;2022-07-29T11:39:45;38.60;99.90
42905;DHT22;28550;51.228;4.528;2022-07-29T11:45:04;39.40;99.90
42905;DHT22;28550;51.228;4.528;2022-07-29T11:47:38;39.20;99.90
42905;DHT22;28550;51.228;4.528;2022-07-29T11:50:06;40.00;99.90
42905;DHT22;28550;51.228;4.528;2022-07-29T11:52:39;40.30;99.90
42905;DHT22;28550;51.228;4.528;2022-07-29T11:58:35;40.90;99.90
42905;DHT22;28550;51.228;4.528;2022-07-29T12:01:08;41.40;99.90
42905;DHT22;28550;51.228;4.528;2022-07-29T12:06:28;41.60;99.90
42905;DHT22;28550;51.228;4.528;2022-07-29T12:08:53;41.60;99.90
42905;DHT22;28550;51.228;4.528;2022-07-29T12:11:19;41.30;99.90
42905;DHT22;28550;51.228;4.528;2022-07-29T12:13:45;39.50;99.90
42905;DHT22;28550;51.228;4.528;2022-07-29T12:16:11;38.30;99.90
42905;DHT22;28550;51.228;4.528;2022-07-29T12:18:37;38.60;99.90
42905;DHT22;28550;51.228;4.528;2022-07-29T12:21:02;39.00;99.90
42905;DHT22;28550;51.228;4.528;2022-07-29T12:23:31;37.50;99.90
42905;DHT22;28550;51.228;4.528;2022-07-29T12:29:00;37.50;99.90
42905;DHT22;28550;51.228;4.528;2022-07-29T12:31:39;37.40;99.90
42905;DHT22;28550;51.228;4.528;2022-07-29T12:37:08;37.40;99.90
42905;DHT22;28550;51.228;4.528;2022-07-29T12:42:02;37.90;99.90
42905;DHT22;28550;51.228;4.528;2022-07-29T12:47:32;39.30;99.90
42905;DHT22;28550;51.228;4.528;2022-07-29T12:50:16;39.70;99.90
42905;DHT22;28550;51.228;4.528;2022-07-29T12:52:43;38.50;99.90
42905;DHT22;28550;51.228;4.528;2022-07-29T12:55:13;34.80;99.90
42905;DHT22;28550;51.228;4.528;2022-07-29T12:57:46;33.80;99.90
42905;DHT22;28550;51.228;4.528;2022-07-29T13:00:16;33.10;99.90
42905;DHT22;28550;51.228;4.528;2022-07-29T13:02:42;32.00;99.90
42905;DHT22;28550;51.228;4.528;2022-07-29T13:05:08;31.20;99.90
42905;DHT22;28550;51.228;4.528;2022-07-29T13:07:38;30.90;99.90
42905;DHT22;28550;51.228;4.528;2022-07-29T13:16:06;31.90;99.90
42905;DHT22;28550;51.228;4.528;2022-07-29T13:27:10;30.50;99.90
42905;DHT22;28550;51.228;4.528;2022-07-29T13:29:36;30.40;99.90
42905;DHT22;28550;51.228;4.528;2022-07-29T13:32:05;30.00;99.90
42905;DHT22;28550;51.228;4.528;2022-07-29T13:34:31;29.70;99.90
42905;DHT22;28550;51.228;4.528;2022-07-29T13:36:57;31.30;99.90
42905;DHT22;28550;51.228;4.528;2022-07-29T13:42:06;33.70;99.90
42905;DHT22;28550;51.228;4.528;2022-07-29T13:44:31;33.30;99.90
42905;DHT22;28550;51.228;4.528;2022-07-29T13:46:57;34.40;99.90
42905;DHT22;28550;51.228;4.528;2022-07-29T13:49:24;35.40;99.90
42905;DHT22;28550;51.228;4.528;2022-07-29T13:51:50;36.50;99.90
42905;DHT22;28550;51.228;4.528;2022-07-29T13:54:15;37.30;99.90
42905;DHT22;28550;51.228;4.528;2022-07-29T13:56:41;37.90;99.90
42905;DHT22;28550;51.228;4.528;2022-07-29T13:59:07;38.30;99.90
42905;DHT22;28550;51.228;4.528;2022-07-29T14:01:34;37.40;99.90
42905;DHT22;28550;51.228;4.528;2022-07-29T14:04:02;37.10;99.90
42905;DHT22;28550;51.228;4.528;2022-07-29T14:06:35;37.10;99.90
42905;DHT22;28550;51.228;4.528;2022-07-29T14:11:26;36.00;99.90
42905;DHT22;28550;51.228;4.528;2022-07-29T14:16:27;36.00;99.90
42905;DHT22;28550;51.228;4.528;2022-07-29T14:18:53;36.20;99.90
42905;DHT22;28550;51.228;4.528;2022-07-29T14:21:18;36.10;99.90
42905;DHT22;28550;51.228;4.528;2022-07-29T14:23:47;35.70;99.90
42905;DHT22;28550;51.228;4.528;2022-07-29T14:26:13;36.00;99.90
42905;DHT22;28550;51.228;4.528;2022-07-29T14:28:38;35.60;99.90
42905;DHT22;28550;51.228;4.528;2022-07-29T14:31:05;35.60;99.90
42905;DHT22;28550;51.228;4.528;2022-07-29T14:33:31;35.10;99.90
42905;DHT22;28550;51.228;4.528;2022-07-29T14:35:56;34.80;99.90
42905;DHT22;28550;51.228;4.528;2022-07-29T14:38:22;34.80;99.90
42905;DHT22;28550;51.228;4.528;2022-07-29T14:40:47;34.80;99.90
42905;DHT22;28550;51.228;4.528;2022-07-29T14:43:16;35.20;99.90
42905;DHT22;28550;51.228;4.528;2022-07-29T14:45:42;35.90;99.90
42905;DHT22;28550;51.228;4.528;2022-07-29T14:48:07;35.50;99.90
42905;DHT22;28550;51.228;4.528;2022-07-29T14:50:33;35.10;99.90
42905;DHT22;28550;51.228;4.528;2022-07-29T14:53:03;35.10;99.90
42905;DHT22;28550;51.228;4.528;2022-07-29T14:55:29;34.80;99.90
42905;DHT22;28550;51.228;4.528;2022-07-29T14:57:54;35.00;99.90
42905;DHT22;28550;51.228;4.528;2022-07-29T15:00:20;35.20;99.90
42905;DHT22;28550;51.228;4.528;2022-07-29T15:02:47;35.50;99.90
42905;DHT22;28550;51.228;4.528;2022-07-29T15:05:13;36.20;99.90
42905;DHT22;28550;51.228;4.528;2022-07-29T15:07:38;36.10;99.90
42905;DHT22;28550;51.228;4.528;2022-07-29T15:10:04;36.20;99.90
42905;DHT22;28550;51.228;4.528;2022-07-29T15:12:30;35.00;99.90
42905;DHT22;28550;51.228;4.528;2022-07-29T15:14:56;34.40;99.90
42905;DHT22;28550;51.228;4.528;2022-07-29T15:17:21;34.60;99.90
42905;DHT22;28550;51.228;4.528;2022-07-29T15:22:37;35.40;99.90
42905;DHT22;28550;51.228;4.528;2022-07-29T15:25:03;35.00;99.90
42905;DHT22;28550;51.228;4.528;2022-07-29T15:27:29;35.10;99.90
42905;DHT22;28550;51.228;4.528;2022-07-29T15:29:55;35.70;99.90
42905;DHT22;28550;51.228;4.528;2022-07-29T15:32:23;35.90;99.90
42905;DHT22;28550;51.228;4.528;2022-07-29T15:34:49;35.60;99.90
42905;DHT22;28550;51.228;4.528;2022-07-29T15:37:14;35.10;99.90
42905;DHT22;28550;51.228;4.528;2022-07-29T15:39:40;35.10;99.90
42905;DHT22;28550;51.228;4.528;2022-07-29T15:42:05;35.30;99.90
42905;DHT22;28550;51.228;4.528;2022-07-29T15:44:37;34.70;99.90
42905;DHT22;28550;51.228;4.528;2022-07-29T15:47:03;34.60;99.90
42905;DHT22;28550;51.228;4.528;2022-07-29T15:49:29;34.40;99.90
42905;DHT22;28550;51.228;4.528;2022-07-29T15:51:58;34.20;99.90
42905;DHT22;28550;51.228;4.528;2022-07-29T15:54:24;34.20;99.90
42905;DHT22;28550;51.228;4.528;2022-07-29T15:56:50;33.50;99.90
42905;DHT22;28550;51.228;4.528;2022-07-29T15:59:16;32.50;99.90
42905;DHT22;28550;51.228;4.528;2022-07-29T16:01:42;32.20;99.90
42905;DHT22;28550;51.228;4.528;2022-07-29T16:04:07;31.90;99.90
42905;DHT22;28550;51.228;4.528;2022-07-29T16:06:33;32.30;99.90
42905;DHT22;28550;51.228;4.528;2022-07-29T16:08:58;32.60;99.90
42905;DHT22;28550;51.228;4.528;2022-07-29T16:11:30;32.30;99.90
42905;DHT22;28550;51.228;4.528;2022-07-29T16:13:56;32.10;99.90
42905;DHT22;28550;51.228;4.528;2022-07-29T16:16:22;32.10;99.90
42905;DHT22;28550;51.228;4.528;2022-07-29T16:18:48;32.10;99.90
42905;DHT22;28550;51.228;4.528;2022-07-29T16:21:13;31.80;99.90
42905;DHT22;28550;51.228;4.528;2022-07-29T16:23:39;31.40;99.90
42905;DHT22;28550;51.228;4.528;2022-07-29T16:26:05;31.40;99.90
42905;DHT22;28550;51.228;4.528;2022-07-29T16:28:32;31.80;99.90
42905;DHT22;28550;51.228;4.528;2022-07-29T16:30:57;31.80;99.90
42905;DHT22;28550;51.228;4.528;2022-07-29T16:33:26;32.10;99.90
42905;DHT22;28550;51.228;4.528;2022-07-29T16:35:52;31.80;99.90
42905;DHT22;28550;51.228;4.528;2022-07-29T16:38:18;31.30;99.90
42905;DHT22;28550;51.228;4.528;2022-07-29T16:40:43;31.20;99.90
42905;DHT22;28550;51.228;4.528;2022-07-29T16:43:09;31.10;99.90
42905;DHT22;28550;51.228;4.528;2022-07-29T16:45:35;31.10;99.90
42905;DHT22;28550;51.228;4.528;2022-07-29T16:48:01;30.60;99.90
42905;DHT22;28550;51.228;4.528;2022-07-29T16:50:28;30.40;99.90
42905;DHT22;28550;51.228;4.528;2022-07-29T16:52:54;30.40;99.90
42905;DHT22;28550;51.228;4.528;2022-07-29T16:55:20;30.20;99.90
42905;DHT22;28550;51.228;4.528;2022-07-29T16:57:45;30.20;99.90
42905;DHT22;28550;51.228;4.528;2022-07-29T17:00:12;30.00;99.90
42905;DHT22;28550;51.228;4.528;2022-07-29T17:02:38;29.70;99.90
42905;DHT22;28550;51.228;4.528;2022-07-29T17:05:05;29.10;99.90
42905;DHT22;28550;51.228;4.528;2022-07-29T17:07:30;28.70;99.90
42905;DHT22;28550;51.228;4.528;2022-07-29T17:09:58;28.80;99.90
42905;DHT22;28550;51.228;4.528;2022-07-29T17:12:24;28.90;99.90
42905;DHT22;28550;51.228;4.528;2022-07-29T17:14:50;28.50;99.90
42905;DHT22;28550;51.228;4.528;2022-07-29T17:17:15;28.50;99.90
42905;DHT22;28550;51.228;4.528;2022-07-29T17:19:43;28.40;99.90
42905;DHT22;28550;51.228;4.528;2022-07-29T17:22:14;28.30;99.90
42905;DHT22;28550;51.228;4.528;2022-07-29T17:25:00;28.30;99.90
42905;DHT22;28550;51.228;4.528;2022-07-29T17:27:26;28.10;99.90
42905;DHT22;28550;51.228;4.528;2022-07-29T17:29:51;27.90;99.90
42905;DHT22;28550;51.228;4.528;2022-07-29T17:32:17;27.90;99.90
42905;DHT22;28550;51.228;4.528;2022-07-29T17:34:42;27.70;99.90
42905;DHT22;28550;51.228;4.528;2022-07-29T17:37:08;27.60;99.90
42905;DHT22;28550;51.228;4.528;2022-07-29T17:39:35;27.60;99.90
42905;DHT22;28550;51.228;4.528;2022-07-29T17:42:01;27.60;99.90
42905;DHT22;28550;51.228;4.528;2022-07-29T17:44:27;27.70;99.90
42905;DHT22;28550;51.228;4.528;2022-07-29T17:46:53;27.70;99.90
42905;DHT22;28550;51.228;4.528;2022-07-29T17:49:18;27.50;99.90
42905;DHT22;28550;51.228;4.528;2022-07-29T17:51:44;27.30;99.90
42905;DHT22;28550;51.228;4.528;2022-07-29T17:54:09;27.00;99.90
42905;DHT22;28550;51.228;4.528;2022-07-29T17:56:35;26.60;99.90
42905;DHT22;28550;51.228;4.528;2022-07-29T17:59:00;26.40;99.90
42905;DHT22;28550;51.228;4.528;2022-07-29T18:01:48;25.90;99.90
42905;DHT22;28550;51.228;4.528;2022-07-29T18:04:13;25.70;99.90
42905;DHT22;28550;51.228;4.528;2022-07-29T18:06:44;25.60;99.90
42905;DHT22;28550;51.228;4.528;2022-07-29T18:09:12;25.40;99.90
42905;DHT22;28550;51.228;4.528;2022-07-29T18:11:37;25.20;99.90
42905;DHT22;28550;51.228;4.528;2022-07-29T18:14:08;25.00;99.90
42905;DHT22;28550;51.228;4.528;2022-07-29T18:16:34;24.50;99.90
42905;DHT22;28550;51.228;4.528;2022-07-29T18:21:40;24.10;99.90
42905;DHT22;28550;51.228;4.528;2022-07-29T18:24:06;24.00;99.90
42905;DHT22;28550;51.228;4.528;2022-07-29T18:26:32;23.70;99.90
42905;DHT22;28550;51.228;4.528;2022-07-29T18:28:58;23.70;99.90
42905;DHT22;28550;51.228;4.528;2022-07-29T18:31:23;23.70;99.90
42905;DHT22;28550;51.228;4.528;2022-07-29T18:33:49;23.70;99.90
42905;DHT22;28550;51.228;4.528;2022-07-29T18:36:14;23.60;99.90
42905;DHT22;28550;51.228;4.528;2022-07-29T18:38:40;23.60;99.90
42905;DHT22;28550;51.228;4.528;2022-07-29T18:41:05;23.60;99.90
42905;DHT22;28550;51.228;4.528;2022-07-29T18:43:31;23.50;99.90
42905;DHT22;28550;51.228;4.528;2022-07-29T18:45:56;23.50;99.90
42905;DHT22;28550;51.228;4.528;2022-07-29T18:48:22;23.30;99.90
42905;DHT22;28550;51.228;4.528;2022-07-29T18:50:47;23.30;99.90
42905;DHT22;28550;51.228;4.528;2022-07-29T18:53:14;23.30;99.90
42905;DHT22;28550;51.228;4.528;2022-07-29T18:55:40;23.20;99.90
42905;DHT22;28550;51.228;4.528;2022-07-29T18:58:05;23.00;99.90
42905;DHT22;28550;51.228;4.528;2022-07-29T19:00:31;23.00;99.90
42905;DHT22;28550;51.228;4.528;2022-07-29T19:02:56;22.90;99.90
42905;DHT22;28550;51.228;4.528;2022-07-29T19:05:22;22.80;99.90
42905;DHT22;28550;51.228;4.528;2022-07-29T19:07:48;22.70;99.90
42905;DHT22;28550;51.228;4.528;2022-07-29T19:10:13;22.70;99.90
42905;DHT22;28550;51.228;4.528;2022-07-29T19:12:39;22.50;99.90
42905;DHT22;28550;51.228;4.528;2022-07-29T19:15:04;22.60;99.90
42905;DHT22;28550;51.228;4.528;2022-07-29T19:17:31;22.50;99.90
42905;DHT22;28550;51.228;4.528;2022-07-29T19:19:59;22.50;99.90
42905;DHT22;28550;51.228;4.528;2022-07-29T19:22:25;22.40;99.90
42905;DHT22;28550;51.228;4.528;2022-07-29T19:24:50;22.40;99.90
42905;DHT22;28550;51.228;4.528;2022-07-29T19:27:17;22.30;99.90
42905;DHT22;28550;51.228;4.528;2022-07-29T19:29:43;22.20;99.90
42905;DHT22;28550;51.228;4.528;2022-07-29T19:32:09;22.10;99.90
42905;DHT22;28550;51.228;4.528;2022-07-29T19:34:35;22.00;99.90
42905;DHT22;28550;51.228;4.528;2022-07-29T19:37:00;21.90;99.90
42905;DHT22;28550;51.228;4.528;2022-07-29T19:39:26;21.80;1.00
42905;DHT22;28550;51.228;4.528;2022-07-29T19:41:52;21.70;1.00
42905;DHT22;28550;51.228;4.528;2022-07-29T19:44:20;21.60;1.00
42905;DHT22;28550;51.228;4.528;2022-07-29T19:46:45;21.50;89.30
42905;DHT22;28550;51.228;4.528;2022-07-29T19:49:11;21.40;99.90
42905;DHT22;28550;51.228;4.528;2022-07-29T19:51:38;21.30;1.00
42905;DHT22;28550;51.228;4.528;2022-07-29T19:54:03;21.30;92.90
42905;DHT22;28550;51.228;4.528;2022-07-29T19:56:30;21.20;99.90
42905;DHT22;28550;51.228;4.528;2022-07-29T19:58:56;21.10;1.00
42905;DHT22;28550;51.228;4.528;2022-07-29T20:01:22;21.10;1.00
42905;DHT22;28550;51.228;4.528;2022-07-29T20:03:49;21.00;1.00
42905;DHT22;28550;51.228;4.528;2022-07-29T20:06:18;20.90;1.00
42905;DHT22;28550;51.228;4.528;2022-07-29T20:08:43;20.70;99.90
42905;DHT22;28550;51.228;4.528;2022-07-29T20:11:09;20.70;99.90
42905;DHT22;28550;51.228;4.528;2022-07-29T20:13:35;20.60;99.90
42905;DHT22;28550;51.228;4.528;2022-07-29T20:16:01;20.70;99.90
42905;DHT22;28550;51.228;4.528;2022-07-29T20:18:29;20.70;99.90
42905;DHT22;28550;51.228;4.528;2022-07-29T20:20:55;20.60;99.90
42905;DHT22;28550;51.228;4.528;2022-07-29T20:23:21;20.60;99.90
42905;DHT22;28550;51.228;4.528;2022-07-29T20:25:47;20.40;99.90
42905;DHT22;28550;51.228;4.528;2022-07-29T20:28:13;20.40;99.90
42905;DHT22;28550;51.228;4.528;2022-07-29T20:30:38;20.40;99.90
42905;DHT22;28550;51.228;4.528;2022-07-29T20:33:04;20.30;99.90
42905;DHT22;28550;51.228;4.528;2022-07-29T20:35:30;20.30;99.90
42905;DHT22;28550;51.228;4.528;2022-07-29T20:37:56;20.10;99.90
42905;DHT22;28550;51.228;4.528;2022-07-29T20:40:23;20.10;99.90
42905;DHT22;28550;51.228;4.528;2022-07-29T20:42:49;20.00;99.90
42905;DHT22;28550;51.228;4.528;2022-07-29T20:45:14;20.00;99.90
42905;DHT22;28550;51.228;4.528;2022-07-29T20:47:40;19.90;99.90
42905;DHT22;28550;51.228;4.528;2022-07-29T20:50:06;19.80;99.90
42905;DHT22;28550;51.228;4.528;2022-07-29T20:52:31;19.80;99.90
42905;DHT22;28550;51.228;4.528;2022-07-29T20:54:57;19.70;99.90
42905;DHT22;28550;51.228;4.528;2022-07-29T20:57:22;19.60;99.90
42905;DHT22;28550;51.228;4.528;2022-07-29T20:59:49;19.60;99.90
42905;DHT22;28550;51.228;4.528;2022-07-29T21:02:14;19.50;99.90
42905;DHT22;28550;51.228;4.528;2022-07-29T21:04:40;19.50;99.90
42905;DHT22;28550;51.228;4.528;2022-07-29T21:07:07;19.50;99.90
42905;DHT22;28550;51.228;4.528;2022-07-29T21:09:33;19.30;99.90
42905;DHT22;28550;51.228;4.528;2022-07-29T21:12:02;19.30;99.90
42905;DHT22;28550;51.228;4.528;2022-07-29T21:14:29;19.20;99.90
42905;DHT22;28550;51.228;4.528;2022-07-29T21:17:01;19.20;99.90